createdAt,value
2023-01-29T00:00:56.558Z,1021.83
2023-01-29T00:01:56.548Z,1021.79
2023-01-29T00:02:56.472Z,1021.77
2023-01-29T00:03:56.424Z,1021.78
2023-01-29T00:05:56.328Z,1021.77
2023-01-29T00:06:56.286Z,1021.75
2023-01-29T00:07:56.247Z,1021.71
2023-01-29T00:08:56.197Z,1021.72
2023-01-29T00:09:56.157Z,1021.72
2023-01-29T00:10:20.843Z,1021.76
2023-01-29T00:10:56.112Z,1021.69
2023-01-29T00:11:56.081Z,1021.62
2023-01-29T00:12:56.032Z,1021.65
2023-01-29T00:13:56.005Z,1021.63
2023-01-29T00:14:55.943Z,1021.65
2023-01-29T00:15:55.904Z,1021.57
2023-01-29T00:16:55.930Z,1021.59
2023-01-29T00:17:55.821Z,1021.59
2023-01-29T00:18:55.775Z,1021.58
2023-01-29T00:19:55.744Z,1021.56
2023-01-29T00:20:55.700Z,1021.54
2023-01-29T00:21:55.652Z,1021.57
2023-01-29T00:22:55.616Z,1021.58
2023-01-29T00:23:55.617Z,1021.56
2023-01-29T00:24:55.518Z,1021.57
2023-01-29T00:25:55.476Z,1021.57
2023-01-29T00:26:55.442Z,1021.52
2023-01-29T00:27:55.390Z,1021.53
2023-01-29T00:28:55.355Z,1021.50
2023-01-29T00:29:55.310Z,1021.48
2023-01-29T00:30:55.427Z,1021.43
2023-01-29T00:31:55.328Z,1021.45
2023-01-29T00:32:55.177Z,1021.50
2023-01-29T00:33:55.136Z,1021.46
2023-01-29T00:34:55.095Z,1021.51
2023-01-29T00:35:55.051Z,1021.53
2023-01-29T00:36:55.010Z,1021.55
2023-01-29T00:37:54.967Z,1021.53
2023-01-29T00:38:54.988Z,1021.53
2023-01-29T00:39:54.889Z,1021.52
2023-01-29T00:40:54.844Z,1021.50
2023-01-29T00:41:54.792Z,1021.44
2023-01-29T00:42:54.765Z,1021.42
2023-01-29T00:43:54.707Z,1021.41
2023-01-29T00:44:54.671Z,1021.39
2023-01-29T00:45:54.640Z,1021.35
2023-01-29T00:46:54.766Z,1021.32
2023-01-29T00:47:54.547Z,1021.31
2023-01-29T00:48:54.538Z,1021.30
2023-01-29T00:49:54.465Z,1021.27
2023-01-29T00:50:54.409Z,1021.32
2023-01-29T00:51:54.369Z,1021.23
2023-01-29T00:52:54.330Z,1021.22
2023-01-29T00:53:54.313Z,1021.15
2023-01-29T00:54:54.254Z,1021.16
2023-01-29T00:55:54.197Z,1021.17
2023-01-29T00:56:54.158Z,1021.15
2023-01-29T00:57:54.111Z,1021.18
2023-01-29T00:58:54.080Z,1021.24
2023-01-29T00:59:54.036Z,1021.21
2023-01-29T01:00:53.991Z,1021.25
2023-01-29T01:01:53.966Z,1021.25
2023-01-29T01:02:53.909Z,1021.25
2023-01-29T01:03:53.853Z,1021.27
2023-01-29T01:04:53.815Z,1021.24
2023-01-29T01:05:53.768Z,1021.24
2023-01-29T01:06:53.744Z,1021.22
2023-01-29T01:07:53.693Z,1021.22
2023-01-29T01:08:53.643Z,1021.19
2023-01-29T01:09:53.602Z,1021.24
2023-01-29T01:10:53.553Z,1021.24
2023-01-29T01:11:53.523Z,1021.26
2023-01-29T01:12:53.501Z,1021.25
2023-01-29T01:13:53.430Z,1021.27
2023-01-29T01:14:53.388Z,1021.25
2023-01-29T01:15:53.404Z,1021.22
2023-01-29T01:16:53.299Z,1021.22
2023-01-29T01:17:53.261Z,1021.19
2023-01-29T01:18:53.214Z,1021.16
2023-01-29T01:19:53.174Z,1021.14
2023-01-29T01:20:53.135Z,1021.12
2023-01-29T01:21:53.085Z,1021.08
2023-01-29T01:22:53.050Z,1021.04
2023-01-29T01:23:53.002Z,1021.06
2023-01-29T01:24:52.954Z,1021.07
2023-01-29T01:25:52.933Z,1021.10
2023-01-29T01:26:52.872Z,1021.13
2023-01-29T01:27:52.831Z,1021.13
2023-01-29T01:28:52.791Z,1021.12
2023-01-29T01:29:52.746Z,1021.14
2023-01-29T01:30:52.712Z,1021.14
2023-01-29T01:31:52.691Z,1021.15
2023-01-29T01:32:52.628Z,1021.18
2023-01-29T01:33:52.572Z,1021.23
2023-01-29T01:34:52.536Z,1021.27
2023-01-29T01:35:52.494Z,1021.28
2023-01-29T01:36:52.440Z,1021.26
2023-01-29T01:37:52.416Z,1021.27
2023-01-29T01:38:52.357Z,1021.29
2023-01-29T01:39:52.318Z,1021.32
2023-01-29T01:40:52.275Z,1021.33
2023-01-29T01:41:52.227Z,1021.33
2023-01-29T01:42:52.200Z,1021.36
2023-01-29T01:43:52.171Z,1021.36
2023-01-29T01:44:52.115Z,1021.35
2023-01-29T01:45:52.151Z,1021.33
2023-01-29T01:46:52.020Z,1021.30
2023-01-29T01:47:51.970Z,1021.26
2023-01-29T01:48:51.962Z,1021.28
2023-01-29T01:49:51.884Z,1021.27
2023-01-29T01:50:51.851Z,1021.27
2023-01-29T01:51:51.836Z,1021.23
2023-01-29T01:52:51.774Z,1021.20
2023-01-29T01:53:51.718Z,1021.21
2023-01-29T01:54:51.678Z,1021.20
2023-01-29T01:55:51.627Z,1021.17
2023-01-29T01:56:51.590Z,1021.19
2023-01-29T01:57:51.550Z,1021.16
2023-01-29T01:58:51.499Z,1021.14
2023-01-29T01:59:51.459Z,1021.09
2023-01-29T02:00:51.455Z,1021.04
2023-01-29T02:01:51.438Z,1021.07
2023-01-29T02:02:51.333Z,1021.00
2023-01-29T02:03:51.284Z,1020.99
2023-01-29T02:04:51.263Z,1020.99
2023-01-29T02:05:51.204Z,1020.96
2023-01-29T02:06:51.160Z,1020.96
2023-01-29T02:07:51.115Z,1020.97
2023-01-29T02:08:51.071Z,1020.93
2023-01-29T02:09:51.034Z,1020.97
2023-01-29T02:10:50.987Z,1021.01
2023-01-29T02:11:50.969Z,1020.99
2023-01-29T02:12:50.901Z,1021.02
2023-01-29T02:13:50.862Z,1021.02
2023-01-29T02:14:50.817Z,1021.02
2023-01-29T02:15:50.788Z,1021.05
2023-01-29T02:16:50.729Z,1021.07
2023-01-29T02:17:50.741Z,1021.09
2023-01-29T02:18:50.656Z,1021.11
2023-01-29T02:19:50.609Z,1021.11
2023-01-29T02:20:50.564Z,1021.12
2023-01-29T02:21:50.523Z,1021.10
2023-01-29T02:22:50.468Z,1021.05
2023-01-29T02:23:50.496Z,1021.09
2023-01-29T02:24:50.391Z,1021.06
2023-01-29T02:25:50.343Z,1021.06
2023-01-29T02:26:50.305Z,1021.10
2023-01-29T02:27:50.270Z,1021.09
2023-01-29T02:28:50.213Z,1021.10
2023-01-29T02:29:50.261Z,1021.11
2023-01-29T02:30:50.138Z,1021.11
2023-01-29T02:31:50.165Z,1021.11
2023-01-29T02:32:50.044Z,1021.11
2023-01-29T02:33:50.000Z,1021.09
2023-01-29T02:34:49.961Z,1021.13
2023-01-29T02:35:49.928Z,1021.11
2023-01-29T02:36:49.890Z,1021.11
2023-01-29T02:37:49.841Z,1021.13
2023-01-29T02:38:49.793Z,1021.16
2023-01-29T02:39:49.743Z,1021.12
2023-01-29T02:40:49.709Z,1021.12
2023-01-29T02:41:49.654Z,1021.14
2023-01-29T02:42:49.615Z,1021.12
2023-01-29T02:43:49.572Z,1021.18
2023-01-29T02:44:49.524Z,1021.18
2023-01-29T02:45:49.548Z,1021.15
2023-01-29T02:46:49.441Z,1021.16
2023-01-29T02:47:49.401Z,1021.18
2023-01-29T02:48:49.357Z,1021.20
2023-01-29T02:49:49.315Z,1021.20
2023-01-29T02:50:49.277Z,1021.21
2023-01-29T02:51:49.226Z,1021.24
2023-01-29T02:52:49.183Z,1021.26
2023-01-29T02:53:49.140Z,1021.28
2023-01-29T02:54:49.105Z,1021.30
2023-01-29T02:55:49.059Z,1021.36
2023-01-29T02:56:49.012Z,1021.34
2023-01-29T02:57:48.969Z,1021.34
2023-01-29T02:58:48.934Z,1021.36
2023-01-29T02:59:48.883Z,1021.39
2023-01-29T03:00:48.865Z,1021.42
2023-01-29T03:01:48.811Z,1021.44
2023-01-29T03:02:48.753Z,1021.46
2023-01-29T03:03:48.721Z,1021.48
2023-01-29T03:04:48.670Z,1021.47
2023-01-29T03:05:48.624Z,1021.48
2023-01-29T03:06:48.585Z,1021.54
2023-01-29T03:07:48.540Z,1021.56
2023-01-29T03:08:48.494Z,1021.58
2023-01-29T03:09:48.472Z,1021.61
2023-01-29T03:10:48.410Z,1021.72
2023-01-29T03:11:48.372Z,1021.77
2023-01-29T03:12:48.326Z,1021.74
2023-01-29T03:13:48.280Z,1021.73
2023-01-29T03:14:48.249Z,1021.70
2023-01-29T03:15:48.196Z,1021.67
2023-01-29T03:16:48.222Z,1021.65
2023-01-29T03:17:48.123Z,1021.62
2023-01-29T03:18:48.098Z,1021.66
2023-01-29T03:19:48.027Z,1021.63
2023-01-29T03:20:47.984Z,1021.64
2023-01-29T03:21:47.940Z,1021.60
2023-01-29T03:22:47.892Z,1021.53
2023-01-29T03:23:47.862Z,1021.49
2023-01-29T03:24:47.810Z,1021.43
2023-01-29T03:25:47.767Z,1021.45
2023-01-29T03:26:47.722Z,1021.40
2023-01-29T03:27:47.680Z,1021.36
2023-01-29T03:28:47.638Z,1021.39
2023-01-29T03:29:47.619Z,1021.32
2023-01-29T03:30:47.548Z,1021.29
2023-01-29T03:31:47.553Z,1021.28
2023-01-29T03:32:47.458Z,1021.27
2023-01-29T03:33:47.417Z,1021.27
2023-01-29T03:34:47.403Z,1021.26
2023-01-29T03:35:47.369Z,1021.22
2023-01-29T03:36:47.320Z,1021.21
2023-01-29T03:37:47.250Z,1021.14
2023-01-29T03:38:47.206Z,1021.17
2023-01-29T03:39:47.165Z,1021.11
2023-01-29T03:40:47.120Z,1021.10
2023-01-29T03:41:47.092Z,1021.11
2023-01-29T03:42:47.034Z,1021.08
2023-01-29T03:43:46.991Z,1021.10
2023-01-29T03:44:48.938Z,1021.12
2023-01-29T03:45:46.944Z,1021.15
2023-01-29T03:46:46.862Z,1021.13
2023-01-29T03:47:46.819Z,1021.14
2023-01-29T03:48:46.778Z,1021.14
2023-01-29T03:49:46.737Z,1021.20
2023-01-29T03:50:46.688Z,1021.19
2023-01-29T03:51:46.650Z,1021.22
2023-01-29T03:52:46.599Z,1021.21
2023-01-29T03:53:46.555Z,1021.18
2023-01-29T03:54:46.526Z,1021.21
2023-01-29T03:55:46.474Z,1021.23
2023-01-29T03:56:46.428Z,1021.23
2023-01-29T03:57:46.404Z,1021.26
2023-01-29T03:58:46.345Z,1021.28
2023-01-29T03:59:46.298Z,1021.25
2023-01-29T04:00:46.260Z,1021.28
2023-01-29T04:01:46.253Z,1021.33
2023-01-29T04:02:46.173Z,1021.37
2023-01-29T04:03:46.161Z,1021.38
2023-01-29T04:04:46.082Z,1021.39
2023-01-29T04:05:46.047Z,1021.34
2023-01-29T04:06:45.999Z,1021.31
2023-01-29T04:07:45.964Z,1021.31
2023-01-29T04:08:45.911Z,1021.26
2023-01-29T04:09:45.868Z,1021.26
2023-01-29T04:10:45.829Z,1021.24
2023-01-29T04:11:45.804Z,1021.27
2023-01-29T04:12:45.760Z,1021.25
2023-01-29T04:13:45.695Z,1021.23
2023-01-29T04:14:45.655Z,1021.26
2023-01-29T04:15:45.608Z,1021.20
2023-01-29T04:16:45.637Z,1021.23
2023-01-29T04:17:45.528Z,1021.23
2023-01-29T04:18:45.481Z,1021.19
2023-01-29T04:19:45.438Z,1021.18
2023-01-29T04:20:45.395Z,1021.16
2023-01-29T04:21:45.357Z,1021.19
2023-01-29T04:22:45.315Z,1021.15
2023-01-29T04:23:45.269Z,1021.19
2023-01-29T04:24:45.258Z,1021.15
2023-01-29T04:25:45.181Z,1021.15
2023-01-29T04:26:45.137Z,1021.13
2023-01-29T04:27:45.093Z,1021.10
2023-01-29T04:28:45.050Z,1021.13
2023-01-29T04:29:45.007Z,1021.08
2023-01-29T04:30:44.991Z,1021.02
2023-01-29T04:31:44.954Z,1021.01
2023-01-29T04:32:44.875Z,1020.94
2023-01-29T04:33:44.829Z,1020.92
2023-01-29T04:34:44.787Z,1020.88
2023-01-29T04:35:44.756Z,1020.85
2023-01-29T04:36:44.709Z,1020.83
2023-01-29T04:37:44.712Z,1020.89
2023-01-29T04:38:44.621Z,1020.88
2023-01-29T04:39:44.576Z,1020.90
2023-01-29T04:40:44.535Z,1020.86
2023-01-29T04:41:44.482Z,1020.83
2023-01-29T04:42:44.443Z,1020.88
2023-01-29T04:43:44.406Z,1020.83
2023-01-29T04:44:44.360Z,1020.85
2023-01-29T04:45:44.309Z,1020.86
2023-01-29T04:46:44.267Z,1020.77
2023-01-29T04:47:44.343Z,1020.83
2023-01-29T04:48:44.188Z,1020.80
2023-01-29T04:49:44.142Z,1020.80
2023-01-29T04:50:44.096Z,1020.78
2023-01-29T04:51:44.052Z,1020.75
2023-01-29T04:52:44.015Z,1020.76
2023-01-29T04:53:43.965Z,1020.77
2023-01-29T04:54:43.940Z,1020.75
2023-01-29T04:55:43.894Z,1020.75
2023-01-29T04:56:43.841Z,1020.77
2023-01-29T04:57:43.794Z,1020.73
2023-01-29T04:58:43.760Z,1020.75
2023-01-29T04:59:43.714Z,1020.70
2023-01-29T05:00:43.666Z,1020.74
2023-01-29T05:01:43.711Z,1020.73
2023-01-29T05:02:43.614Z,1020.74
2023-01-29T05:03:43.541Z,1020.75
2023-01-29T05:04:43.498Z,1020.74
2023-01-29T05:05:43.455Z,1020.76
2023-01-29T05:06:43.410Z,1020.72
2023-01-29T05:07:43.364Z,1020.66
2023-01-29T05:08:43.327Z,1020.65
2023-01-29T05:09:43.288Z,1020.65
2023-01-29T05:10:43.254Z,1020.60
2023-01-29T05:11:43.191Z,1020.57
2023-01-29T05:12:43.148Z,1020.51
2023-01-29T05:13:43.112Z,1020.49
2023-01-29T05:14:43.060Z,1020.52
2023-01-29T05:15:43.066Z,1020.58
2023-01-29T05:16:42.974Z,1020.55
2023-01-29T05:17:42.938Z,1020.56
2023-01-29T05:18:42.888Z,1020.56
2023-01-29T05:19:42.858Z,1020.50
2023-01-29T05:20:42.799Z,1020.54
2023-01-29T05:21:42.776Z,1020.55
2023-01-29T05:22:42.731Z,1020.57
2023-01-29T05:23:42.673Z,1020.64
2023-01-29T05:24:42.630Z,1020.63
2023-01-29T05:25:42.586Z,1020.69
2023-01-29T05:26:42.549Z,1020.70
2023-01-29T05:27:42.511Z,1020.75
2023-01-29T05:28:42.452Z,1020.78
2023-01-29T05:29:42.418Z,1020.76
2023-01-29T05:30:42.399Z,1020.74
2023-01-29T05:31:42.377Z,1020.74
2023-01-29T05:32:42.281Z,1020.69
2023-01-29T05:33:42.249Z,1020.68
2023-01-29T05:34:42.207Z,1020.68
2023-01-29T05:35:42.160Z,1020.68
2023-01-29T05:36:42.110Z,1020.64
2023-01-29T05:37:42.078Z,1020.65
2023-01-29T05:38:42.019Z,1020.58
2023-01-29T05:39:41.987Z,1020.57
2023-01-29T05:40:41.937Z,1020.58
2023-01-29T05:41:41.896Z,1020.55
2023-01-29T05:42:41.864Z,1020.54
2023-01-29T05:43:41.813Z,1020.56
2023-01-29T05:44:41.763Z,1020.60
2023-01-29T05:45:41.724Z,1020.57
2023-01-29T05:46:41.745Z,1020.58
2023-01-29T05:47:41.669Z,1020.58
2023-01-29T05:48:41.620Z,1020.55
2023-01-29T05:49:41.559Z,1020.60
2023-01-29T05:50:41.511Z,1020.63
2023-01-29T05:51:41.477Z,1020.63
2023-01-29T05:52:41.422Z,1020.60
2023-01-29T05:53:41.383Z,1020.64
2023-01-29T05:54:41.334Z,1020.62
2023-01-29T05:55:41.302Z,1020.66
2023-01-29T05:56:41.279Z,1020.65
2023-01-29T05:57:41.221Z,1020.66
2023-01-29T05:58:41.165Z,1020.64
2023-01-29T05:59:41.120Z,1020.62
2023-01-29T06:00:41.077Z,1020.61
2023-01-29T06:01:41.057Z,1020.65
2023-01-29T06:02:41.086Z,1020.60
2023-01-29T06:03:40.948Z,1020.59
2023-01-29T06:04:40.909Z,1020.60
2023-01-29T06:05:40.867Z,1020.59
2023-01-29T06:06:40.813Z,1020.60
2023-01-29T06:07:42.904Z,1020.59
2023-01-29T06:08:40.747Z,1020.57
2023-01-29T06:09:40.691Z,1020.55
2023-01-29T06:10:40.646Z,1020.57
2023-01-29T06:11:40.611Z,1020.53
2023-01-29T06:12:40.558Z,1020.56
2023-01-29T06:13:40.515Z,1020.57
2023-01-29T06:14:40.473Z,1020.54
2023-01-29T06:15:40.433Z,1020.56
2023-01-29T06:16:40.388Z,1020.59
2023-01-29T06:17:40.342Z,1020.58
2023-01-29T06:18:40.328Z,1020.57
2023-01-29T06:19:40.274Z,1020.57
2023-01-29T06:20:40.260Z,1020.56
2023-01-29T06:21:40.171Z,1020.58
2023-01-29T06:22:40.133Z,1020.56
2023-01-29T06:23:40.119Z,1020.55
2023-01-29T06:24:40.045Z,1020.57
2023-01-29T06:25:40.022Z,1020.57
2023-01-29T06:26:39.952Z,1020.57
2023-01-29T06:27:39.909Z,1020.58
2023-01-29T06:28:39.877Z,1020.53
2023-01-29T06:29:39.826Z,1020.57
2023-01-29T06:30:39.830Z,1020.60
2023-01-29T06:31:40.096Z,1020.61
2023-01-29T06:32:39.819Z,1020.57
2023-01-29T06:33:39.649Z,1020.63
2023-01-29T06:34:39.611Z,1020.58
2023-01-29T06:35:39.567Z,1020.59
2023-01-29T06:36:39.536Z,1020.59
2023-01-29T06:37:39.501Z,1020.62
2023-01-29T06:38:39.444Z,1020.68
2023-01-29T06:39:39.400Z,1020.74
2023-01-29T06:40:39.356Z,1020.78
2023-01-29T06:41:39.320Z,1020.77
2023-01-29T06:42:39.272Z,1020.81
2023-01-29T06:43:39.235Z,1020.85
2023-01-29T06:44:39.204Z,1020.88
2023-01-29T06:45:39.155Z,1020.94
2023-01-29T06:46:39.093Z,1020.93
2023-01-29T06:47:39.045Z,1020.99
2023-01-29T06:48:39.005Z,1021.03
2023-01-29T06:49:38.963Z,1021.05
2023-01-29T06:50:38.928Z,1021.06
2023-01-29T06:51:38.891Z,1021.04
2023-01-29T06:52:38.855Z,1021.05
2023-01-29T06:53:38.805Z,1021.12
2023-01-29T06:54:38.745Z,1021.13
2023-01-29T06:55:38.709Z,1021.15
2023-01-29T06:56:38.675Z,1021.18
2023-01-29T06:57:38.616Z,1021.18
2023-01-29T06:58:38.582Z,1021.14
2023-01-29T06:59:38.536Z,1021.17
2023-01-29T07:00:38.590Z,1021.20
2023-01-29T07:01:38.514Z,1021.19
2023-01-29T07:02:38.401Z,1021.18
2023-01-29T07:03:38.366Z,1021.22
2023-01-29T07:04:38.321Z,1021.22
2023-01-29T07:05:38.283Z,1021.20
2023-01-29T07:06:38.233Z,1021.22
2023-01-29T07:07:38.185Z,1021.15
2023-01-29T07:08:38.140Z,1021.15
2023-01-29T07:09:38.100Z,1021.07
2023-01-29T07:10:38.077Z,1021.05
2023-01-29T07:11:38.047Z,1021.02
2023-01-29T07:12:37.971Z,1021.02
2023-01-29T07:13:37.932Z,1021.05
2023-01-29T07:14:37.887Z,1021.04
2023-01-29T07:15:37.845Z,1021.06
2023-01-29T07:16:37.856Z,1021.04
2023-01-29T07:17:37.753Z,1021.06
2023-01-29T07:18:37.717Z,1020.99
2023-01-29T07:19:37.669Z,1021.04
2023-01-29T07:20:37.634Z,1021.00
2023-01-29T07:21:37.583Z,1020.98
2023-01-29T07:22:37.538Z,1020.98
2023-01-29T07:23:37.517Z,1020.88
2023-01-29T07:24:37.462Z,1020.88
2023-01-29T07:25:37.416Z,1020.87
2023-01-29T07:26:37.371Z,1020.88
2023-01-29T07:27:37.340Z,1020.90
2023-01-29T07:28:37.280Z,1020.93
2023-01-29T07:29:37.238Z,1020.93
2023-01-29T07:30:37.206Z,1020.93
2023-01-29T07:31:37.226Z,1020.93
2023-01-29T07:32:37.107Z,1020.97
2023-01-29T07:33:37.086Z,1021.01
2023-01-29T07:34:37.030Z,1021.00
2023-01-29T07:35:37.007Z,1021.03
2023-01-29T07:36:36.942Z,1021.04
2023-01-29T07:37:36.903Z,1020.98
2023-01-29T07:38:36.864Z,1020.98
2023-01-29T07:39:36.820Z,1021.01
2023-01-29T07:40:36.768Z,1021.05
2023-01-29T07:41:36.730Z,1021.05
2023-01-29T07:42:36.692Z,1021.05
2023-01-29T07:43:36.643Z,1021.03
2023-01-29T07:44:36.608Z,1021.00
2023-01-29T07:45:36.605Z,1021.01
2023-01-29T07:46:36.509Z,1021.00
2023-01-29T07:47:36.478Z,1021.00
2023-01-29T07:48:36.435Z,1020.99
2023-01-29T07:49:36.385Z,1021.03
2023-01-29T07:50:36.346Z,1021.02
2023-01-29T07:51:36.306Z,1021.02
2023-01-29T07:52:36.261Z,1021.01
2023-01-29T07:53:36.216Z,1020.98
2023-01-29T07:54:36.181Z,1020.98
2023-01-29T07:55:36.128Z,1021.00
2023-01-29T07:56:36.095Z,1020.98
2023-01-29T07:57:36.048Z,1021.00
2023-01-29T07:58:36.841Z,1020.99
2023-01-29T07:59:35.960Z,1020.98
2023-01-29T08:00:35.927Z,1020.99
2023-01-29T08:01:35.877Z,1020.98
2023-01-29T08:02:35.887Z,1020.94
2023-01-29T08:03:35.826Z,1020.93
2023-01-29T08:04:35.749Z,1020.93
2023-01-29T08:05:35.709Z,1020.96
2023-01-29T08:06:35.661Z,1020.95
2023-01-29T08:07:35.627Z,1020.95
2023-01-29T08:08:35.581Z,1020.90
2023-01-29T08:09:35.559Z,1020.93
2023-01-29T08:10:35.501Z,1020.89
2023-01-29T08:11:35.455Z,1020.97
2023-01-29T08:12:35.428Z,1020.91
2023-01-29T08:13:35.367Z,1020.95
2023-01-29T08:14:35.319Z,1020.96
2023-01-29T08:15:37.897Z,1020.98
2023-01-29T08:16:35.286Z,1020.99
2023-01-29T08:17:35.200Z,1021.02
2023-01-29T08:18:35.162Z,1021.00
2023-01-29T08:19:35.110Z,1021.01
2023-01-29T08:20:35.067Z,1021.03
2023-01-29T08:21:35.030Z,1021.02
2023-01-29T08:22:34.985Z,1021.02
2023-01-29T08:23:34.942Z,1020.97
2023-01-29T08:24:47.671Z,1020.94
2023-01-29T08:25:34.906Z,1020.88
2023-01-29T08:26:34.826Z,1020.84
2023-01-29T08:27:34.801Z,1020.84
2023-01-29T08:28:34.727Z,1020.83
2023-01-29T08:29:34.691Z,1020.84
2023-01-29T08:30:34.693Z,1020.88
2023-01-29T08:31:34.643Z,1020.89
2023-01-29T08:32:34.563Z,1020.90
2023-01-29T08:33:39.158Z,1020.92
2023-01-29T08:34:34.483Z,1020.99
2023-01-29T08:35:34.456Z,1021.01
2023-01-29T08:36:34.393Z,1020.99
2023-01-29T08:37:34.358Z,1021.02
2023-01-29T08:38:34.326Z,1021.02
2023-01-29T08:39:34.663Z,1021.04
2023-01-29T08:40:34.227Z,1021.02
2023-01-29T08:41:34.189Z,1021.07
2023-01-29T08:42:34.148Z,1021.09
2023-01-29T08:43:34.101Z,1021.08
2023-01-29T08:44:34.061Z,1021.06
2023-01-29T08:45:34.213Z,1021.04
2023-01-29T08:46:33.982Z,1021.00
2023-01-29T08:47:33.938Z,1020.99
2023-01-29T08:48:33.906Z,1021.00
2023-01-29T08:49:33.848Z,1021.01
2023-01-29T08:50:33.806Z,1021.04
2023-01-29T08:51:33.763Z,1021.02
2023-01-29T08:52:33.728Z,1021.03
2023-01-29T08:53:33.681Z,1021.00
2023-01-29T08:54:33.642Z,1020.96
2023-01-29T08:55:33.597Z,1020.91
2023-01-29T08:56:33.555Z,1020.86
2023-01-29T08:57:33.521Z,1020.84
2023-01-29T08:58:33.475Z,1020.81
2023-01-29T08:59:33.436Z,1020.79
2023-01-29T09:00:33.395Z,1020.86
2023-01-29T09:01:33.404Z,1020.86
2023-01-29T09:02:33.374Z,1020.86
2023-01-29T09:03:33.261Z,1020.85
2023-01-29T09:04:33.221Z,1020.87
2023-01-29T09:05:33.203Z,1020.85
2023-01-29T09:06:33.139Z,1020.79
2023-01-29T09:07:33.104Z,1020.76
2023-01-29T09:08:33.062Z,1020.77
2023-01-29T09:09:33.013Z,1020.78
2023-01-29T09:10:33.116Z,1020.80
2023-01-29T09:11:32.925Z,1020.76
2023-01-29T09:12:32.895Z,1020.80
2023-01-29T09:13:32.845Z,1020.76
2023-01-29T09:14:32.824Z,1020.75
2023-01-29T09:15:32.800Z,1020.80
2023-01-29T09:16:32.751Z,1020.82
2023-01-29T09:17:32.679Z,1020.86
2023-01-29T09:18:32.647Z,1020.86
2023-01-29T09:19:32.594Z,1020.87
2023-01-29T09:20:32.555Z,1020.87
2023-01-29T09:21:32.516Z,1020.82
2023-01-29T09:22:32.476Z,1020.86
2023-01-29T09:23:32.429Z,1020.83
2023-01-29T09:24:32.386Z,1020.85
2023-01-29T09:25:32.349Z,1020.85
2023-01-29T09:26:32.349Z,1020.87
2023-01-29T09:27:32.264Z,1020.84
2023-01-29T09:28:32.222Z,1020.85
2023-01-29T09:29:34.138Z,1020.80
2023-01-29T09:30:32.176Z,1020.81
2023-01-29T09:31:32.230Z,1020.83
2023-01-29T09:32:55.640Z,1020.78
2023-01-29T09:33:32.008Z,1020.77
2023-01-29T09:34:31.976Z,1020.74
2023-01-29T09:35:31.932Z,1020.75
2023-01-29T09:36:31.919Z,1020.70
2023-01-29T09:37:31.847Z,1020.67
2023-01-29T09:38:31.832Z,1020.66
2023-01-29T09:39:31.771Z,1020.65
2023-01-29T09:40:31.723Z,1020.66
2023-01-29T09:41:31.688Z,1020.71
2023-01-29T09:42:31.664Z,1020.72
2023-01-29T09:43:31.597Z,1020.73
2023-01-29T09:44:31.558Z,1020.73
2023-01-29T09:45:31.527Z,1020.72
2023-01-29T09:46:31.477Z,1020.70
2023-01-29T09:47:31.437Z,1020.72
2023-01-29T09:48:31.396Z,1020.70
2023-01-29T09:49:31.359Z,1020.77
2023-01-29T09:50:31.320Z,1020.68
2023-01-29T09:51:31.266Z,1020.59
2023-01-29T09:52:31.229Z,1020.57
2023-01-29T09:53:31.186Z,1020.55
2023-01-29T09:54:31.148Z,1020.57
2023-01-29T09:55:31.116Z,1020.53
2023-01-29T09:56:31.080Z,1020.52
2023-01-29T09:57:31.020Z,1020.53
2023-01-29T09:58:30.985Z,1020.55
2023-01-29T09:59:30.933Z,1020.58
2023-01-29T10:00:30.897Z,1020.53
2023-01-29T10:01:30.941Z,1020.55
2023-01-29T10:02:30.813Z,1020.53
2023-01-29T10:03:30.776Z,1020.51
2023-01-29T10:04:30.799Z,1020.53
2023-01-29T10:05:31.736Z,1020.50
2023-01-29T10:06:30.653Z,1020.48
2023-01-29T10:07:30.609Z,1020.47
2023-01-29T10:08:30.579Z,1020.46
2023-01-29T10:09:30.533Z,1020.40
2023-01-29T10:10:30.499Z,1020.38
2023-01-29T10:11:30.448Z,1020.33
2023-01-29T10:12:30.422Z,1020.30
2023-01-29T10:13:30.366Z,1020.30
2023-01-29T10:14:30.327Z,1020.24
2023-01-29T10:15:30.285Z,1020.20
2023-01-29T10:16:30.360Z,1020.16
2023-01-29T10:17:30.203Z,1020.15
2023-01-29T10:18:30.209Z,1020.13
2023-01-29T10:19:30.131Z,1020.17
2023-01-29T10:20:30.080Z,1020.18
2023-01-29T10:21:30.037Z,1020.11
2023-01-29T10:22:30.000Z,1020.09
2023-01-29T10:23:29.955Z,1020.12
2023-01-29T10:24:29.914Z,1020.11
2023-01-29T10:25:29.901Z,1020.13
2023-01-29T10:26:29.913Z,1020.17
2023-01-29T10:27:29.794Z,1020.19
2023-01-29T10:28:29.769Z,1020.16
2023-01-29T10:29:29.713Z,1020.15
2023-01-29T10:30:29.679Z,1020.11
2023-01-29T10:31:29.755Z,1020.11
2023-01-29T10:32:29.608Z,1020.10
2023-01-29T10:33:33.094Z,1020.08
2023-01-29T10:34:29.518Z,1020.11
2023-01-29T10:35:29.471Z,1020.11
2023-01-29T10:36:29.452Z,1020.08
2023-01-29T10:37:29.393Z,1020.14
2023-01-29T10:38:29.363Z,1020.17
2023-01-29T10:39:29.325Z,1020.16
2023-01-29T10:40:29.280Z,1020.12
2023-01-29T10:41:29.234Z,1020.13
2023-01-29T10:42:29.195Z,1020.13
2023-01-29T10:43:29.154Z,1020.10
2023-01-29T10:44:29.120Z,1020.13
2023-01-29T10:45:29.068Z,1020.06
2023-01-29T10:46:29.035Z,1020.11
2023-01-29T10:47:30.314Z,1020.10
2023-01-29T10:48:28.945Z,1020.07
2023-01-29T10:49:28.918Z,1020.10
2023-01-29T10:50:28.872Z,1020.11
2023-01-29T10:51:28.825Z,1020.10
2023-01-29T10:52:28.798Z,1020.13
2023-01-29T10:53:28.760Z,1020.07
2023-01-29T10:54:28.708Z,1020.05
2023-01-29T10:55:28.673Z,1020.02
2023-01-29T10:56:28.637Z,1020.00
2023-01-29T10:57:28.592Z,1019.98
2023-01-29T10:58:28.552Z,1019.96
2023-01-29T10:59:28.510Z,1019.94
2023-01-29T11:00:28.473Z,1019.91
2023-01-29T11:01:28.442Z,1019.96
2023-01-29T11:02:28.453Z,1019.92
2023-01-29T11:03:29.134Z,1019.95
2023-01-29T11:04:28.311Z,1019.96
2023-01-29T11:05:28.275Z,1019.95
2023-01-29T11:06:28.229Z,1019.96
2023-01-29T11:07:28.225Z,1019.89
2023-01-29T11:08:28.148Z,1019.88
2023-01-29T11:09:28.109Z,1019.89
2023-01-29T11:10:28.082Z,1019.87
2023-01-29T11:11:28.034Z,1019.86
2023-01-29T11:12:28.004Z,1019.81
2023-01-29T11:13:27.950Z,1019.81
2023-01-29T11:14:27.925Z,1019.78
2023-01-29T11:15:27.876Z,1019.80
2023-01-29T11:16:27.847Z,1019.78
2023-01-29T11:17:27.791Z,1019.77
2023-01-29T11:18:27.757Z,1019.76
2023-01-29T11:19:27.711Z,1019.72
2023-01-29T11:20:27.679Z,1019.75
2023-01-29T11:21:27.640Z,1019.74
2023-01-29T11:22:27.592Z,1019.69
2023-01-29T11:23:27.559Z,1019.67
2023-01-29T11:24:27.544Z,1019.64
2023-01-29T11:25:27.474Z,1019.67
2023-01-29T11:26:27.516Z,1019.65
2023-01-29T11:27:27.396Z,1019.63
2023-01-29T11:28:27.359Z,1019.61
2023-01-29T11:29:27.325Z,1019.60
2023-01-29T11:30:27.280Z,1019.58
2023-01-29T11:31:27.363Z,1019.55
2023-01-29T11:32:27.197Z,1019.54
2023-01-29T11:33:27.158Z,1019.50
2023-01-29T11:34:27.123Z,1019.46
2023-01-29T11:35:27.093Z,1019.45
2023-01-29T11:36:28.474Z,1019.43
2023-01-29T11:37:27.003Z,1019.36
2023-01-29T11:38:26.957Z,1019.35
2023-01-29T11:39:26.949Z,1019.26
2023-01-29T11:40:26.884Z,1019.29
2023-01-29T11:41:26.858Z,1019.34
2023-01-29T11:42:26.806Z,1019.33
2023-01-29T11:43:26.786Z,1019.33
2023-01-29T11:44:26.734Z,1019.36
2023-01-29T11:45:26.679Z,1019.35
2023-01-29T11:46:26.701Z,1019.36
2023-01-29T11:47:26.615Z,1019.31
2023-01-29T11:48:26.564Z,1019.30
2023-01-29T11:49:26.525Z,1019.28
2023-01-29T11:50:26.482Z,1019.31
2023-01-29T11:51:26.459Z,1019.24
2023-01-29T11:52:26.418Z,1019.23
2023-01-29T11:53:26.386Z,1019.27
2023-01-29T11:54:26.326Z,1019.27
2023-01-29T11:55:26.291Z,1019.22
2023-01-29T11:56:26.247Z,1019.25
2023-01-29T11:57:26.215Z,1019.22
2023-01-29T11:58:26.168Z,1019.21
2023-01-29T11:59:26.134Z,1019.21
2023-01-29T12:00:26.118Z,1019.21
2023-01-29T12:01:26.049Z,1019.23
2023-01-29T12:02:26.027Z,1019.16
2023-01-29T12:03:25.995Z,1019.14
2023-01-29T12:04:25.935Z,1019.12
2023-01-29T12:05:25.914Z,1019.11